Terminal Aerodrome Forecast
Issued by NWS El Paso, TX

Home | Current Version | Previous Version | Text Only | Print | Product List | Glossary On
Versions: 1 2 3 4 5 6 7 8 9 10 11 12 13 14 15 16 17 18 19 20 21 22 23 24 25 26
000
FTUS44 KEPZ 182339
TAFELP
TAF
KELP 182339Z 1900/1924 30029G43KT 6SM HZ SCT050 BKN250
     FM190400 34015G25KT P6SM FEW250
     FM190800 36009KT P6SM FEW250
     FM191800 21005KT P6SM FEW250=

USA.gov is the U.S. government's official web portal to all federal, state and local government web resources and services.